createdAt,value
2022-10-16T00:01:40.431Z,16.40
2022-10-16T00:04:28.830Z,16.40
2022-10-16T00:07:17.195Z,16.40
2022-10-16T00:10:07.694Z,16.40
2022-10-16T00:12:55.991Z,16.40
2022-10-16T00:15:44.966Z,16.30
2022-10-16T00:18:34.212Z,16.30
2022-10-16T00:21:25.295Z,16.30
2022-10-16T00:24:13.751Z,16.30
2022-10-16T00:27:03.440Z,16.30
2022-10-16T00:29:52.300Z,16.30
2022-10-16T00:32:40.658Z,16.30
2022-10-16T00:35:30.095Z,16.30
2022-10-16T00:38:19.008Z,16.20
2022-10-16T00:41:08.249Z,16.20
2022-10-16T00:43:59.171Z,16.10
2022-10-16T00:46:47.300Z,16.10
2022-10-16T00:49:35.662Z,16.00
2022-10-16T00:52:24.162Z,16.00
2022-10-16T00:55:12.764Z,15.90
2022-10-16T00:58:01.718Z,15.90
2022-10-16T01:00:51.524Z,15.90
2022-10-16T01:03:40.294Z,15.80
2022-10-16T01:06:36.361Z,15.80
2022-10-16T01:09:29.788Z,15.80
2022-10-16T01:12:25.004Z,15.70
2022-10-16T01:15:20.060Z,15.70
2022-10-16T01:18:16.628Z,15.70
2022-10-16T01:21:07.902Z,15.70
2022-10-16T01:24:08.703Z,15.80
2022-10-16T01:27:11.807Z,15.80
2022-10-16T01:30:06.950Z,15.80
2022-10-16T01:33:00.506Z,15.80
2022-10-16T01:35:54.488Z,15.80
2022-10-16T01:38:45.518Z,15.80
2022-10-16T01:41:39.395Z,15.80
2022-10-16T01:44:32.979Z,15.70
2022-10-16T01:47:24.687Z,15.70
2022-10-16T01:50:16.374Z,15.80
2022-10-16T01:53:06.961Z,15.70
2022-10-16T01:55:57.672Z,15.70
2022-10-16T01:58:49.963Z,15.70
2022-10-16T02:01:43.639Z,15.70
2022-10-16T02:04:36.501Z,15.70
2022-10-16T02:07:25.136Z,15.60
2022-10-16T02:10:13.525Z,15.60
2022-10-16T02:13:07.500Z,15.50
2022-10-16T02:15:55.902Z,15.40
2022-10-16T02:18:46.181Z,15.40
2022-10-16T02:21:42.616Z,15.40
2022-10-16T02:24:36.039Z,15.30
2022-10-16T02:27:29.999Z,15.30
2022-10-16T02:30:23.342Z,15.20
2022-10-16T02:33:15.199Z,15.20
2022-10-16T02:36:05.332Z,15.20
2022-10-16T02:38:54.726Z,15.20
2022-10-16T02:41:43.174Z,15.20
2022-10-16T02:44:31.476Z,15.10
2022-10-16T02:47:19.878Z,15.10
2022-10-16T02:50:09.014Z,15.10
2022-10-16T02:52:58.656Z,15.10
2022-10-16T02:55:47.030Z,15.10
2022-10-16T02:58:35.321Z,15.20
2022-10-16T03:01:23.698Z,15.10
2022-10-16T03:04:12.100Z,15.10
2022-10-16T03:07:00.417Z,15.00
2022-10-16T03:09:50.065Z,15.00
2022-10-16T03:12:38.397Z,15.00
2022-10-16T03:15:26.980Z,15.00
2022-10-16T03:18:15.490Z,15.00
2022-10-16T03:21:03.861Z,15.00
2022-10-16T03:23:52.177Z,15.10
2022-10-16T03:26:41.916Z,15.10
2022-10-16T03:29:30.434Z,15.00
2022-10-16T03:32:19.444Z,15.10
2022-10-16T03:35:08.580Z,15.10
2022-10-16T03:37:57.498Z,15.10
2022-10-16T03:40:45.813Z,15.20
2022-10-16T03:43:35.742Z,15.20
2022-10-16T03:46:24.121Z,15.20
2022-10-16T03:49:12.843Z,15.20
2022-10-16T03:52:01.161Z,15.30
2022-10-16T03:54:49.521Z,15.20
2022-10-16T03:57:37.878Z,15.20
2022-10-16T04:00:27.704Z,15.10
2022-10-16T04:03:16.139Z,15.10
2022-10-16T04:06:04.576Z,15.10
2022-10-16T04:08:53.020Z,15.10
2022-10-16T04:11:41.396Z,15.20
2022-10-16T04:14:29.723Z,15.20
2022-10-16T04:17:19.538Z,15.20
2022-10-16T04:20:08.749Z,15.30
2022-10-16T04:22:57.080Z,15.30
2022-10-16T04:25:45.425Z,15.40
2022-10-16T04:28:33.818Z,15.30
2022-10-16T04:31:22.400Z,15.40
2022-10-16T04:34:12.079Z,15.40
2022-10-16T04:37:00.408Z,15.40
2022-10-16T04:39:48.691Z,15.40
2022-10-16T04:42:37.017Z,15.40
2022-10-16T04:45:25.412Z,15.30
2022-10-16T04:48:13.792Z,15.20
2022-10-16T04:51:03.499Z,15.20
2022-10-16T04:53:51.820Z,15.30
2022-10-16T04:56:47.546Z,15.20
2022-10-16T04:59:35.907Z,15.20
2022-10-16T05:02:24.297Z,15.20
2022-10-16T05:05:12.731Z,15.10
2022-10-16T05:08:02.423Z,15.10
2022-10-16T05:10:50.782Z,15.10
2022-10-16T05:13:39.071Z,15.10
2022-10-16T05:16:27.613Z,15.00
2022-10-16T05:19:26.982Z,15.10
2022-10-16T05:22:16.216Z,15.10
2022-10-16T05:25:06.685Z,15.20
2022-10-16T05:27:55.050Z,15.20
2022-10-16T05:30:43.448Z,15.10
2022-10-16T05:33:31.789Z,15.10
2022-10-16T05:36:20.160Z,15.00
2022-10-16T05:39:08.501Z,15.00
2022-10-16T05:41:58.218Z,14.90
2022-10-16T05:44:46.566Z,14.90
2022-10-16T05:47:34.892Z,15.00
2022-10-16T05:50:23.220Z,14.90
2022-10-16T05:53:11.689Z,15.00
2022-10-16T05:56:00.751Z,15.10
2022-10-16T05:58:50.482Z,15.10
2022-10-16T06:01:38.820Z,15.10
2022-10-16T06:04:27.159Z,15.10
2022-10-16T06:07:15.629Z,15.10
2022-10-16T06:10:04.964Z,15.10
2022-10-16T06:12:53.251Z,15.10
2022-10-16T06:15:45.489Z,15.10
2022-10-16T06:18:33.821Z,15.10
2022-10-16T06:21:25.778Z,15.10
2022-10-16T06:24:14.118Z,15.20
2022-10-16T06:27:02.460Z,15.20
2022-10-16T06:29:50.823Z,15.20
2022-10-16T06:32:40.522Z,15.30
2022-10-16T06:35:30.364Z,15.30
2022-10-16T06:38:18.797Z,15.40
2022-10-16T06:41:09.140Z,15.50
2022-10-16T06:43:57.504Z,15.50
2022-10-16T06:46:45.843Z,15.50
2022-10-16T06:49:35.572Z,15.50
2022-10-16T06:52:24.139Z,15.50
2022-10-16T06:55:12.681Z,15.60
2022-10-16T06:58:01.018Z,15.60
2022-10-16T07:00:49.897Z,15.70
2022-10-16T07:03:39.109Z,15.70
2022-10-16T07:06:29.667Z,15.80
2022-10-16T07:09:18.068Z,15.80
2022-10-16T07:12:06.803Z,15.90
2022-10-16T07:14:55.813Z,15.90
2022-10-16T07:17:44.083Z,15.90
2022-10-16T07:20:32.397Z,15.90
2022-10-16T07:23:22.165Z,15.90
2022-10-16T07:26:11.528Z,15.90
2022-10-16T07:29:00.078Z,15.90
2022-10-16T07:31:50.058Z,16.00
2022-10-16T07:34:38.421Z,16.00
2022-10-16T07:37:26.932Z,16.00
2022-10-16T07:40:16.947Z,16.00
2022-10-16T07:43:06.389Z,16.00
2022-10-16T07:45:56.043Z,16.00
2022-10-16T07:48:47.901Z,16.00
2022-10-16T07:51:36.550Z,16.00
2022-10-16T07:54:24.881Z,16.00
2022-10-16T07:57:19.880Z,16.00
2022-10-16T08:00:14.396Z,16.00
2022-10-16T08:03:02.927Z,16.00
2022-10-16T08:05:52.416Z,16.00
2022-10-16T08:08:40.819Z,16.00
2022-10-16T08:11:29.154Z,16.00
2022-10-16T08:14:18.826Z,16.10
2022-10-16T08:17:07.120Z,16.10
2022-10-16T08:19:55.408Z,16.10
2022-10-16T08:22:43.731Z,16.10
2022-10-16T08:25:32.375Z,16.10
2022-10-16T08:28:20.985Z,16.20
2022-10-16T08:31:13.403Z,16.20
2022-10-16T08:34:02.168Z,16.40
2022-10-16T08:36:50.482Z,16.50
2022-10-16T08:39:39.030Z,16.60
2022-10-16T08:42:47.456Z,16.70
2022-10-16T08:45:44.051Z,16.70
2022-10-16T08:48:42.393Z,16.80
2022-10-16T08:51:33.716Z,16.90
2022-10-16T08:54:29.932Z,16.90
2022-10-16T08:57:23.209Z,17.10
2022-10-16T09:00:16.159Z,17.10
2022-10-16T09:03:15.558Z,17.20
2022-10-16T09:06:15.627Z,17.30
2022-10-16T09:09:26.728Z,17.30
2022-10-16T09:12:21.594Z,17.40
2022-10-16T09:15:24.105Z,17.50
2022-10-16T09:18:17.389Z,17.50
2022-10-16T09:21:15.607Z,17.50
2022-10-16T09:24:13.735Z,17.60
2022-10-16T09:27:02.024Z,17.60
2022-10-16T09:29:50.340Z,17.70
2022-10-16T09:32:41.072Z,17.70
2022-10-16T09:35:34.777Z,17.80
2022-10-16T09:38:27.518Z,17.80
2022-10-16T09:41:19.549Z,17.80
2022-10-16T09:44:18.786Z,17.90
2022-10-16T09:47:14.421Z,17.90
2022-10-16T09:50:07.055Z,18.00
2022-10-16T09:53:12.590Z,18.10
2022-10-16T09:56:02.288Z,18.20
2022-10-16T09:58:53.389Z,18.10
2022-10-16T10:01:44.745Z,18.20
2022-10-16T10:04:42.647Z,18.40
2022-10-16T10:07:34.963Z,18.60
2022-10-16T10:10:26.557Z,18.70
2022-10-16T10:13:22.874Z,18.80
2022-10-16T10:16:11.517Z,18.90
2022-10-16T10:19:03.027Z,18.90
2022-10-16T10:21:52.513Z,18.90
2022-10-16T10:24:40.803Z,18.90
2022-10-16T10:27:37.477Z,18.90
2022-10-16T10:30:36.501Z,19.00
2022-10-16T10:33:33.197Z,18.90
2022-10-16T10:36:32.855Z,18.90
2022-10-16T10:39:28.344Z,18.80
2022-10-16T10:42:26.177Z,18.90
2022-10-16T10:45:20.442Z,18.90
2022-10-16T10:48:23.632Z,18.80
2022-10-16T10:51:18.772Z,18.80
2022-10-16T10:54:18.764Z,18.90
2022-10-16T10:57:20.744Z,18.80
2022-10-16T11:00:22.568Z,18.90
2022-10-16T11:03:23.381Z,19.00
2022-10-16T11:06:14.330Z,19.30
2022-10-16T11:09:04.182Z,19.50
2022-10-16T11:11:57.149Z,19.70
2022-10-16T11:14:51.717Z,19.80
2022-10-16T11:17:43.157Z,20.00
2022-10-16T11:20:36.724Z,20.30
2022-10-16T11:23:29.775Z,20.50
2022-10-16T11:26:23.322Z,20.60
2022-10-16T11:29:17.282Z,20.80
2022-10-16T11:32:24.272Z,20.70
2022-10-16T11:35:21.606Z,20.70
2022-10-16T11:38:17.713Z,20.50
2022-10-16T11:41:17.172Z,20.40
2022-10-16T11:44:18.576Z,20.40
2022-10-16T11:47:46.807Z,20.40
2022-10-16T11:50:30.811Z,20.30
2022-10-16T11:53:30.745Z,20.20
2022-10-16T11:56:21.070Z,20.20
2022-10-16T11:59:19.309Z,20.30
2022-10-16T12:02:32.239Z,20.30
2022-10-16T12:05:27.320Z,20.30
2022-10-16T12:08:17.544Z,20.60
2022-10-16T12:11:22.315Z,20.70
2022-10-16T12:14:42.946Z,20.80
2022-10-16T12:17:40.765Z,20.90
2022-10-16T12:20:33.446Z,21.10
2022-10-16T12:23:24.122Z,21.30
2022-10-16T12:26:13.675Z,21.40
2022-10-16T12:29:16.509Z,21.60
2022-10-16T12:32:09.266Z,21.70
2022-10-16T12:35:00.507Z,21.70
2022-10-16T12:37:49.053Z,21.80
2022-10-16T12:40:39.896Z,22.00
2022-10-16T12:43:39.130Z,21.90
2022-10-16T12:46:39.672Z,21.50
2022-10-16T12:49:38.901Z,21.10
2022-10-16T12:52:36.651Z,20.90
2022-10-16T12:55:25.734Z,20.70
2022-10-16T12:58:41.272Z,20.50
2022-10-16T13:01:39.576Z,20.30
2022-10-16T13:04:49.245Z,20.20
2022-10-16T13:07:53.296Z,20.10
2022-10-16T13:10:53.312Z,20.30
2022-10-16T13:14:17.992Z,20.50
2022-10-16T13:17:13.974Z,20.80
2022-10-16T13:20:13.272Z,21.00
2022-10-16T13:23:10.772Z,21.00
2022-10-16T13:26:13.476Z,21.20
2022-10-16T13:29:03.905Z,21.30
2022-10-16T13:31:52.455Z,21.30
2022-10-16T13:34:47.384Z,21.30
2022-10-16T13:37:35.717Z,21.30
2022-10-16T13:40:26.432Z,21.30
2022-10-16T13:43:14.585Z,21.20
2022-10-16T13:46:06.289Z,21.20
2022-10-16T13:49:00.657Z,21.20
2022-10-16T13:51:56.943Z,21.20
2022-10-16T13:54:45.278Z,21.20
2022-10-16T13:57:33.626Z,21.10
2022-10-16T14:00:24.526Z,21.00
2022-10-16T14:03:18.369Z,21.00
2022-10-16T14:06:14.600Z,20.90
2022-10-16T14:09:11.761Z,20.80
2022-10-16T14:12:03.003Z,20.80
2022-10-16T14:14:53.516Z,20.70
2022-10-16T14:17:47.677Z,20.70
2022-10-16T14:20:37.367Z,20.60
2022-10-16T14:23:32.127Z,20.50
2022-10-16T14:26:22.889Z,20.60
2022-10-16T14:29:13.731Z,20.50
2022-10-16T14:32:02.614Z,20.50
2022-10-16T14:34:56.245Z,20.40
2022-10-16T14:37:46.748Z,20.30
2022-10-16T14:40:37.164Z,20.30
2022-10-16T14:43:31.216Z,20.30
2022-10-16T14:49:21.291Z,20.10
2022-10-16T14:52:12.519Z,20.20
2022-10-16T14:55:02.228Z,20.20
2022-10-16T14:57:50.659Z,20.20
2022-10-16T15:00:39.000Z,20.20
2022-10-16T15:03:27.382Z,20.20
2022-10-16T15:06:17.282Z,20.20
2022-10-16T15:09:05.696Z,20.20
2022-10-16T15:11:55.401Z,20.10
2022-10-16T15:14:43.704Z,20.10
2022-10-16T15:17:32.071Z,20.00
2022-10-16T15:20:20.540Z,19.90
2022-10-16T15:23:15.649Z,19.90
2022-10-16T15:26:04.027Z,19.80
2022-10-16T15:28:53.856Z,19.80
2022-10-16T15:31:43.626Z,19.80
2022-10-16T15:34:31.991Z,19.70
2022-10-16T15:37:20.677Z,19.70
2022-10-16T15:40:10.987Z,19.70
2022-10-16T15:42:59.332Z,19.60
2022-10-16T15:46:00.771Z,19.60
2022-10-16T15:48:49.823Z,19.60
2022-10-16T15:51:40.637Z,19.60
2022-10-16T15:54:28.894Z,19.60
2022-10-16T15:57:17.261Z,19.50
2022-10-16T16:00:10.389Z,19.30
2022-10-16T16:03:01.449Z,19.30
2022-10-16T16:05:49.854Z,19.20
2022-10-16T16:08:38.920Z,19.20
2022-10-16T16:11:27.283Z,19.10
2022-10-16T16:14:16.728Z,18.90
2022-10-16T16:17:05.137Z,18.80
2022-10-16T16:19:55.222Z,18.60
2022-10-16T16:22:43.946Z,18.40
2022-10-16T16:25:32.337Z,18.30
2022-10-16T16:28:20.691Z,18.20
2022-10-16T16:31:09.667Z,18.00
2022-10-16T16:33:58.985Z,17.90
2022-10-16T16:36:48.654Z,17.70
2022-10-16T16:39:36.999Z,17.60
2022-10-16T16:42:25.357Z,17.50
2022-10-16T16:45:13.791Z,17.30
2022-10-16T16:48:02.194Z,17.10
2022-10-16T16:50:50.740Z,17.00
2022-10-16T16:53:40.403Z,16.90
2022-10-16T16:56:29.083Z,16.80
2022-10-16T16:59:20.712Z,16.70
2022-10-16T17:02:10.471Z,16.70
2022-10-16T17:04:58.978Z,16.60
2022-10-16T17:07:47.427Z,16.50
2022-10-16T17:10:44.715Z,16.50
2022-10-16T17:13:37.899Z,16.30
2022-10-16T17:16:28.154Z,16.30
2022-10-16T17:19:18.296Z,16.10
2022-10-16T17:22:06.639Z,16.10
2022-10-16T17:24:55.002Z,16.00
2022-10-16T17:27:44.698Z,15.90
2022-10-16T17:30:34.200Z,15.90
2022-10-16T17:33:22.526Z,15.80
2022-10-16T17:36:11.835Z,15.70
2022-10-16T17:39:01.763Z,15.60
2022-10-16T17:41:50.429Z,15.50
2022-10-16T17:44:40.407Z,15.40
2022-10-16T17:47:29.004Z,15.30
2022-10-16T17:50:17.382Z,15.30
2022-10-16T17:53:05.691Z,15.20
2022-10-16T17:55:59.305Z,15.20
2022-10-16T17:58:51.619Z,15.10
2022-10-16T18:01:42.310Z,15.00
2022-10-16T18:04:30.675Z,15.00
2022-10-16T18:07:19.304Z,14.90
2022-10-16T18:10:11.908Z,14.90
2022-10-16T18:13:01.728Z,14.80
2022-10-16T18:16:00.915Z,14.80
2022-10-16T18:18:50.523Z,14.80
2022-10-16T18:21:38.919Z,14.80
2022-10-16T18:24:27.726Z,14.70
2022-10-16T18:27:16.068Z,14.70
2022-10-16T18:30:04.817Z,14.70
2022-10-16T18:32:53.774Z,14.60
2022-10-16T18:35:43.449Z,14.50
2022-10-16T18:38:32.357Z,14.50
2022-10-16T18:41:20.926Z,14.50
2022-10-16T18:44:10.911Z,14.50
2022-10-16T18:47:04.657Z,14.50
2022-10-16T18:49:54.158Z,14.40
2022-10-16T18:52:49.888Z,14.40
2022-10-16T18:55:38.198Z,14.40
2022-10-16T18:58:26.765Z,14.40
2022-10-16T19:01:16.976Z,14.50
2022-10-16T19:04:07.973Z,14.50
2022-10-16T19:06:56.389Z,14.50
2022-10-16T19:09:46.080Z,14.40
2022-10-16T19:12:34.344Z,14.40
2022-10-16T19:15:23.411Z,14.40
2022-10-16T19:18:11.948Z,14.40
2022-10-16T19:21:03.282Z,14.40
2022-10-16T19:23:53.804Z,14.50
2022-10-16T19:26:43.884Z,14.50
2022-10-16T19:29:32.656Z,14.50
2022-10-16T19:32:20.967Z,14.40
2022-10-16T19:35:10.169Z,14.40
2022-10-16T19:37:58.650Z,14.40
2022-10-16T19:40:47.022Z,14.50
2022-10-16T19:43:36.872Z,14.50
2022-10-16T19:46:26.669Z,14.50
2022-10-16T19:49:21.898Z,14.50
2022-10-16T19:52:10.864Z,14.50
2022-10-16T19:55:00.567Z,14.50
2022-10-16T19:57:49.512Z,14.50
2022-10-16T20:00:42.490Z,14.50
2022-10-16T20:03:30.880Z,14.50
2022-10-16T20:06:20.758Z,14.60
2022-10-16T20:09:09.266Z,14.50
2022-10-16T20:11:57.719Z,14.60
2022-10-16T20:14:46.823Z,14.70
2022-10-16T20:17:36.717Z,14.70
2022-10-16T20:20:25.257Z,14.70
2022-10-16T20:23:13.555Z,14.70
2022-10-16T20:26:04.159Z,14.70
2022-10-16T20:28:53.643Z,14.70
2022-10-16T20:31:42.675Z,14.70
2022-10-16T20:34:32.410Z,14.70
2022-10-16T20:37:20.772Z,14.70
2022-10-16T20:40:11.024Z,14.70
2022-10-16T20:42:59.349Z,14.70
2022-10-16T20:45:48.082Z,14.70
2022-10-16T20:48:37.023Z,14.70
2022-10-16T20:51:28.553Z,14.70
2022-10-16T20:54:17.371Z,14.60
2022-10-16T20:57:05.912Z,14.60
2022-10-16T20:59:55.613Z,14.70
2022-10-16T21:02:43.945Z,14.70
2022-10-16T21:05:34.532Z,14.70
2022-10-16T21:08:24.347Z,14.70
2022-10-16T21:11:14.991Z,14.70
2022-10-16T21:14:05.819Z,14.70
2022-10-16T21:16:54.977Z,14.70
2022-10-16T21:19:43.311Z,14.70
2022-10-16T21:22:32.158Z,14.70
2022-10-16T21:25:21.844Z,14.70
2022-10-16T21:28:10.271Z,14.60
2022-10-16T21:30:58.674Z,14.70
2022-10-16T21:33:47.222Z,14.70
2022-10-16T21:36:37.124Z,14.60
2022-10-16T21:39:25.967Z,14.60
2022-10-16T21:42:15.648Z,14.70
2022-10-16T21:45:04.200Z,14.70
2022-10-16T21:47:52.564Z,14.70
2022-10-16T21:50:41.019Z,14.70
2022-10-16T21:53:29.424Z,14.70
2022-10-16T21:56:19.347Z,14.80
2022-10-16T21:59:09.504Z,14.80
2022-10-16T22:01:57.931Z,14.80
2022-10-16T22:04:46.308Z,14.80
2022-10-16T22:07:34.656Z,14.90
2022-10-16T22:10:23.055Z,14.80
2022-10-16T22:13:11.378Z,14.80
2022-10-16T22:16:01.630Z,14.80
2022-10-16T22:18:52.167Z,14.80
2022-10-16T22:21:43.586Z,14.80
2022-10-16T22:27:25.844Z,14.90
2022-10-16T22:30:14.538Z,14.90
2022-10-16T22:33:04.851Z,14.90
2022-10-16T22:35:53.308Z,14.90
2022-10-16T22:38:42.003Z,14.90
2022-10-16T22:41:30.992Z,14.80
2022-10-16T22:44:19.385Z,14.80
2022-10-16T22:47:07.757Z,14.80
2022-10-16T22:49:57.480Z,14.70
2022-10-16T22:52:45.835Z,14.70
2022-10-16T22:55:34.188Z,14.60
2022-10-16T22:58:23.070Z,14.60
2022-10-16T23:01:13.564Z,14.60
2022-10-16T23:04:02.305Z,14.60
2022-10-16T23:06:52.407Z,14.50
2022-10-16T23:09:40.760Z,14.50
2022-10-16T23:12:29.456Z,14.40
2022-10-16T23:15:17.932Z,14.50
2022-10-16T23:18:06.360Z,14.50
2022-10-16T23:20:54.699Z,14.50
2022-10-16T23:23:45.222Z,14.50
2022-10-16T23:26:36.054Z,14.50
2022-10-16T23:29:24.379Z,14.50
2022-10-16T23:32:12.765Z,14.50
2022-10-16T23:35:01.206Z,14.50
2022-10-16T23:37:49.616Z,14.50
2022-10-16T23:40:39.321Z,14.50
2022-10-16T23:43:27.914Z,14.50
2022-10-16T23:46:17.043Z,14.60
2022-10-16T23:49:05.464Z,14.60
2022-10-16T23:51:53.858Z,14.50
2022-10-16T23:54:42.224Z,14.50
2022-10-16T23:57:32.413Z,14.50
